sensor_id;sensor_type;location;lat;lon;timestamp;P1;durP1;ratioP1;P2;durP2;ratioP2
49910;SDS011;35803;53.096;5.844;2023-07-09T00:01:13;8.90;;;6.65;;
49910;SDS011;35803;53.096;5.844;2023-07-09T00:04:02;9.25;;;6.38;;
49910;SDS011;35803;53.096;5.844;2023-07-09T00:06:48;9.65;;;6.65;;
49910;SDS011;35803;53.096;5.844;2023-07-09T00:09:37;9.60;;;6.90;;
49910;SDS011;35803;53.096;5.844;2023-07-09T00:12:23;9.57;;;6.63;;
49910;SDS011;35803;53.096;5.844;2023-07-09T00:15:10;10.35;;;6.57;;
49910;SDS011;35803;53.096;5.844;2023-07-09T00:17:57;9.07;;;6.28;;
49910;SDS011;35803;53.096;5.844;2023-07-09T00:20:45;10.02;;;6.68;;
49910;SDS011;35803;53.096;5.844;2023-07-09T00:23:33;11.30;;;6.93;;
49910;SDS011;35803;53.096;5.844;2023-07-09T00:26:25;11.40;;;7.35;;
49910;SDS011;35803;53.096;5.844;2023-07-09T00:29:12;14.50;;;8.30;;
49910;SDS011;35803;53.096;5.844;2023-07-09T00:31:58;14.55;;;7.55;;
49910;SDS011;35803;53.096;5.844;2023-07-09T00:34:44;11.07;;;7.32;;
49910;SDS011;35803;53.096;5.844;2023-07-09T00:37:33;10.95;;;7.55;;
49910;SDS011;35803;53.096;5.844;2023-07-09T00:40:20;12.65;;;7.68;;
49910;SDS011;35803;53.096;5.844;2023-07-09T00:43:09;11.43;;;8.10;;
49910;SDS011;35803;53.096;5.844;2023-07-09T00:49:14;9.43;;;6.90;;
49910;SDS011;35803;53.096;5.844;2023-07-09T00:52:11;11.50;;;7.07;;
49910;SDS011;35803;53.096;5.844;2023-07-09T00:55:09;10.98;;;7.43;;
49910;SDS011;35803;53.096;5.844;2023-07-09T00:57:59;10.88;;;7.10;;
49910;SDS011;35803;53.096;5.844;2023-07-09T01:00:49;10.43;;;7.55;;
49910;SDS011;35803;53.096;5.844;2023-07-09T01:03:48;10.13;;;6.60;;
49910;SDS011;35803;53.096;5.844;2023-07-09T01:06:41;11.15;;;7.68;;
49910;SDS011;35803;53.096;5.844;2023-07-09T01:09:31;11.93;;;8.07;;
49910;SDS011;35803;53.096;5.844;2023-07-09T01:12:20;13.70;;;7.40;;
49910;SDS011;35803;53.096;5.844;2023-07-09T01:15:07;11.15;;;7.88;;
49910;SDS011;35803;53.096;5.844;2023-07-09T01:17:53;10.35;;;7.30;;
49910;SDS011;35803;53.096;5.844;2023-07-09T01:20:47;9.70;;;6.90;;
49910;SDS011;35803;53.096;5.844;2023-07-09T01:23:33;12.73;;;7.45;;
49910;SDS011;35803;53.096;5.844;2023-07-09T01:26:23;9.93;;;7.50;;
49910;SDS011;35803;53.096;5.844;2023-07-09T01:29:10;12.40;;;7.50;;
49910;SDS011;35803;53.096;5.844;2023-07-09T01:31:57;10.07;;;7.50;;
49910;SDS011;35803;53.096;5.844;2023-07-09T01:34:43;12.88;;;8.57;;
49910;SDS011;35803;53.096;5.844;2023-07-09T01:37:29;14.93;;;8.20;;
49910;SDS011;35803;53.096;5.844;2023-07-09T01:40:16;12.68;;;8.50;;
49910;SDS011;35803;53.096;5.844;2023-07-09T01:43:04;11.15;;;7.85;;
49910;SDS011;35803;53.096;5.844;2023-07-09T01:45:53;12.27;;;8.13;;
49910;SDS011;35803;53.096;5.844;2023-07-09T01:48:43;13.27;;;8.23;;
49910;SDS011;35803;53.096;5.844;2023-07-09T01:51:29;12.43;;;7.70;;
49910;SDS011;35803;53.096;5.844;2023-07-09T01:54:15;13.68;;;8.52;;
49910;SDS011;35803;53.096;5.844;2023-07-09T01:57:21;11.43;;;7.70;;
49910;SDS011;35803;53.096;5.844;2023-07-09T02:00:11;9.75;;;7.32;;
49910;SDS011;35803;53.096;5.844;2023-07-09T02:02:59;11.27;;;7.55;;
49910;SDS011;35803;53.096;5.844;2023-07-09T02:05:45;11.30;;;8.07;;
49910;SDS011;35803;53.096;5.844;2023-07-09T02:08:34;11.40;;;8.27;;
49910;SDS011;35803;53.096;5.844;2023-07-09T02:11:19;11.85;;;8.25;;
49910;SDS011;35803;53.096;5.844;2023-07-09T02:14:05;13.30;;;7.93;;
49910;SDS011;35803;53.096;5.844;2023-07-09T02:16:51;11.85;;;8.40;;
49910;SDS011;35803;53.096;5.844;2023-07-09T02:19:37;12.30;;;8.02;;
49910;SDS011;35803;53.096;5.844;2023-07-09T02:22:23;14.10;;;8.93;;
49910;SDS011;35803;53.096;5.844;2023-07-09T02:25:09;13.35;;;8.50;;
49910;SDS011;35803;53.096;5.844;2023-07-09T02:27:55;11.77;;;8.15;;
49910;SDS011;35803;53.096;5.844;2023-07-09T02:30:41;13.10;;;8.13;;
49910;SDS011;35803;53.096;5.844;2023-07-09T02:33:26;12.05;;;8.48;;
49910;SDS011;35803;53.096;5.844;2023-07-09T02:36:12;11.57;;;8.27;;
49910;SDS011;35803;53.096;5.844;2023-07-09T02:38:58;13.13;;;8.27;;
49910;SDS011;35803;53.096;5.844;2023-07-09T02:41:44;12.50;;;8.57;;
49910;SDS011;35803;53.096;5.844;2023-07-09T02:44:29;11.88;;;8.57;;
49910;SDS011;35803;53.096;5.844;2023-07-09T02:47:15;14.98;;;9.00;;
49910;SDS011;35803;53.096;5.844;2023-07-09T02:50:01;15.98;;;8.85;;
49910;SDS011;35803;53.096;5.844;2023-07-09T02:52:49;12.00;;;8.45;;
49910;SDS011;35803;53.096;5.844;2023-07-09T02:55:37;13.55;;;9.07;;
49910;SDS011;35803;53.096;5.844;2023-07-09T02:58:23;14.88;;;8.25;;
49910;SDS011;35803;53.096;5.844;2023-07-09T03:01:09;12.52;;;8.65;;
49910;SDS011;35803;53.096;5.844;2023-07-09T03:03:55;14.75;;;8.75;;
49910;SDS011;35803;53.096;5.844;2023-07-09T03:06:41;14.15;;;8.65;;
49910;SDS011;35803;53.096;5.844;2023-07-09T03:09:27;12.70;;;9.00;;
49910;SDS011;35803;53.096;5.844;2023-07-09T03:12:13;14.05;;;9.18;;
49910;SDS011;35803;53.096;5.844;2023-07-09T03:14:59;13.90;;;8.40;;
49910;SDS011;35803;53.096;5.844;2023-07-09T03:17:45;13.73;;;8.82;;
49910;SDS011;35803;53.096;5.844;2023-07-09T03:20:31;14.27;;;9.60;;
49910;SDS011;35803;53.096;5.844;2023-07-09T03:23:17;12.93;;;9.18;;
49910;SDS011;35803;53.096;5.844;2023-07-09T03:26:03;13.23;;;9.00;;
49910;SDS011;35803;53.096;5.844;2023-07-09T03:28:49;15.25;;;9.50;;
49910;SDS011;35803;53.096;5.844;2023-07-09T03:31:35;13.65;;;8.95;;
49910;SDS011;35803;53.096;5.844;2023-07-09T03:34:21;15.48;;;9.38;;
49910;SDS011;35803;53.096;5.844;2023-07-09T03:37:07;13.43;;;9.65;;
49910;SDS011;35803;53.096;5.844;2023-07-09T03:39:52;13.60;;;9.40;;
49910;SDS011;35803;53.096;5.844;2023-07-09T03:42:38;15.02;;;9.20;;
49910;SDS011;35803;53.096;5.844;2023-07-09T03:45:24;13.27;;;9.43;;
49910;SDS011;35803;53.096;5.844;2023-07-09T03:48:10;14.30;;;8.98;;
49910;SDS011;35803;53.096;5.844;2023-07-09T03:50:55;13.95;;;9.10;;
49910;SDS011;35803;53.096;5.844;2023-07-09T03:53:41;14.15;;;9.35;;
49910;SDS011;35803;53.096;5.844;2023-07-09T03:56:30;13.20;;;9.35;;
49910;SDS011;35803;53.096;5.844;2023-07-09T03:59:16;14.50;;;9.65;;
49910;SDS011;35803;53.096;5.844;2023-07-09T04:02:02;14.93;;;9.85;;
49910;SDS011;35803;53.096;5.844;2023-07-09T04:04:48;14.43;;;9.07;;
49910;SDS011;35803;53.096;5.844;2023-07-09T04:07:36;13.32;;;9.30;;
49910;SDS011;35803;53.096;5.844;2023-07-09T04:10:23;15.63;;;9.95;;
49910;SDS011;35803;53.096;5.844;2023-07-09T04:13:08;14.50;;;9.27;;
49910;SDS011;35803;53.096;5.844;2023-07-09T04:15:55;14.07;;;9.27;;
49910;SDS011;35803;53.096;5.844;2023-07-09T04:18:41;14.05;;;9.57;;
49910;SDS011;35803;53.096;5.844;2023-07-09T04:21:27;14.13;;;9.95;;
49910;SDS011;35803;53.096;5.844;2023-07-09T04:24:14;13.52;;;9.80;;
49910;SDS011;35803;53.096;5.844;2023-07-09T04:27:04;12.80;;;8.93;;
49910;SDS011;35803;53.096;5.844;2023-07-09T04:29:50;12.88;;;9.52;;
49910;SDS011;35803;53.096;5.844;2023-07-09T04:32:36;12.68;;;9.02;;
49910;SDS011;35803;53.096;5.844;2023-07-09T04:35:22;13.77;;;9.57;;
49910;SDS011;35803;53.096;5.844;2023-07-09T04:38:08;15.60;;;9.90;;
49910;SDS011;35803;53.096;5.844;2023-07-09T04:40:54;13.30;;;9.43;;
49910;SDS011;35803;53.096;5.844;2023-07-09T04:43:39;12.02;;;9.05;;
49910;SDS011;35803;53.096;5.844;2023-07-09T04:46:25;13.25;;;9.07;;
49910;SDS011;35803;53.096;5.844;2023-07-09T04:49:11;15.27;;;9.70;;
49910;SDS011;35803;53.096;5.844;2023-07-09T04:51:58;12.98;;;9.30;;
49910;SDS011;35803;53.096;5.844;2023-07-09T04:54:47;14.35;;;9.98;;
49910;SDS011;35803;53.096;5.844;2023-07-09T04:57:35;11.50;;;8.93;;
49910;SDS011;35803;53.096;5.844;2023-07-09T05:00:22;13.13;;;9.63;;
49910;SDS011;35803;53.096;5.844;2023-07-09T05:03:08;15.45;;;9.05;;
49910;SDS011;35803;53.096;5.844;2023-07-09T05:05:53;12.98;;;9.40;;
49910;SDS011;35803;53.096;5.844;2023-07-09T05:08:40;13.35;;;8.80;;
49910;SDS011;35803;53.096;5.844;2023-07-09T05:11:27;13.75;;;9.13;;
49910;SDS011;35803;53.096;5.844;2023-07-09T05:14:13;13.40;;;9.02;;
49910;SDS011;35803;53.096;5.844;2023-07-09T05:16:58;12.80;;;9.02;;
49910;SDS011;35803;53.096;5.844;2023-07-09T05:19:44;13.32;;;8.63;;
49910;SDS011;35803;53.096;5.844;2023-07-09T05:22:30;15.40;;;9.02;;
49910;SDS011;35803;53.096;5.844;2023-07-09T05:25:16;14.13;;;8.98;;
49910;SDS011;35803;53.096;5.844;2023-07-09T05:28:03;11.20;;;8.32;;
49910;SDS011;35803;53.096;5.844;2023-07-09T05:30:49;17.27;;;9.25;;
49910;SDS011;35803;53.096;5.844;2023-07-09T05:33:35;13.00;;;9.35;;
49910;SDS011;35803;53.096;5.844;2023-07-09T05:36:21;14.00;;;9.02;;
49910;SDS011;35803;53.096;5.844;2023-07-09T05:39:07;15.25;;;9.00;;
49910;SDS011;35803;53.096;5.844;2023-07-09T05:41:53;12.00;;;8.75;;
49910;SDS011;35803;53.096;5.844;2023-07-09T05:44:39;12.65;;;9.05;;
49910;SDS011;35803;53.096;5.844;2023-07-09T05:47:25;12.30;;;8.93;;
49910;SDS011;35803;53.096;5.844;2023-07-09T05:50:11;10.98;;;8.23;;
49910;SDS011;35803;53.096;5.844;2023-07-09T05:52:57;13.63;;;8.55;;
49910;SDS011;35803;53.096;5.844;2023-07-09T05:55:43;12.98;;;8.55;;
49910;SDS011;35803;53.096;5.844;2023-07-09T05:58:28;11.38;;;8.10;;
49910;SDS011;35803;53.096;5.844;2023-07-09T06:01:14;13.02;;;8.88;;
49910;SDS011;35803;53.096;5.844;2023-07-09T06:04:00;11.65;;;8.48;;
49910;SDS011;35803;53.096;5.844;2023-07-09T06:06:46;11.98;;;8.18;;
49910;SDS011;35803;53.096;5.844;2023-07-09T06:09:32;14.13;;;9.15;;
49910;SDS011;35803;53.096;5.844;2023-07-09T06:12:18;12.70;;;8.38;;
49910;SDS011;35803;53.096;5.844;2023-07-09T06:15:05;11.30;;;8.48;;
49910;SDS011;35803;53.096;5.844;2023-07-09T06:17:51;11.57;;;8.60;;
49910;SDS011;35803;53.096;5.844;2023-07-09T06:20:38;13.63;;;8.40;;
49910;SDS011;35803;53.096;5.844;2023-07-09T06:23:24;12.68;;;9.20;;
49910;SDS011;35803;53.096;5.844;2023-07-09T06:26:10;16.33;;;9.05;;
49910;SDS011;35803;53.096;5.844;2023-07-09T06:28:56;12.77;;;9.38;;
49910;SDS011;35803;53.096;5.844;2023-07-09T06:31:41;15.90;;;9.70;;
49910;SDS011;35803;53.096;5.844;2023-07-09T06:34:28;14.32;;;9.02;;
49910;SDS011;35803;53.096;5.844;2023-07-09T06:37:14;12.52;;;8.57;;
49910;SDS011;35803;53.096;5.844;2023-07-09T06:40:00;15.32;;;9.05;;
49910;SDS011;35803;53.096;5.844;2023-07-09T06:42:45;13.75;;;8.80;;
49910;SDS011;35803;53.096;5.844;2023-07-09T06:48:45;12.55;;;8.90;;
49910;SDS011;35803;53.096;5.844;2023-07-09T06:51:31;16.15;;;10.05;;
49910;SDS011;35803;53.096;5.844;2023-07-09T06:54:17;13.10;;;9.25;;
49910;SDS011;35803;53.096;5.844;2023-07-09T06:57:03;15.00;;;10.05;;
49910;SDS011;35803;53.096;5.844;2023-07-09T06:59:49;13.13;;;9.32;;
49910;SDS011;35803;53.096;5.844;2023-07-09T07:02:35;12.73;;;9.23;;
49910;SDS011;35803;53.096;5.844;2023-07-09T07:05:21;13.70;;;9.45;;
49910;SDS011;35803;53.096;5.844;2023-07-09T07:08:06;15.23;;;10.90;;
49910;SDS011;35803;53.096;5.844;2023-07-09T07:10:56;15.60;;;10.85;;
49910;SDS011;35803;53.096;5.844;2023-07-09T07:13:47;16.43;;;11.40;;
49910;SDS011;35803;53.096;5.844;2023-07-09T07:16:36;15.27;;;10.63;;
49910;SDS011;35803;53.096;5.844;2023-07-09T07:19:22;15.73;;;11.02;;
49910;SDS011;35803;53.096;5.844;2023-07-09T07:22:08;16.38;;;11.00;;
49910;SDS011;35803;53.096;5.844;2023-07-09T07:24:54;15.48;;;11.10;;
49910;SDS011;35803;53.096;5.844;2023-07-09T07:27:39;15.52;;;11.25;;
49910;SDS011;35803;53.096;5.844;2023-07-09T07:30:25;16.45;;;10.65;;
49910;SDS011;35803;53.096;5.844;2023-07-09T07:33:13;15.90;;;11.48;;
49910;SDS011;35803;53.096;5.844;2023-07-09T07:35:59;15.63;;;11.32;;
49910;SDS011;35803;53.096;5.844;2023-07-09T07:38:52;16.25;;;12.07;;
49910;SDS011;35803;53.096;5.844;2023-07-09T07:41:41;16.58;;;11.20;;
49910;SDS011;35803;53.096;5.844;2023-07-09T07:44:27;17.83;;;12.35;;
49910;SDS011;35803;53.096;5.844;2023-07-09T07:47:13;15.32;;;12.18;;
49910;SDS011;35803;53.096;5.844;2023-07-09T07:49:59;17.25;;;12.05;;
49910;SDS011;35803;53.096;5.844;2023-07-09T07:52:44;20.48;;;11.98;;
49910;SDS011;35803;53.096;5.844;2023-07-09T07:55:30;16.08;;;11.55;;
49910;SDS011;35803;53.096;5.844;2023-07-09T07:58:16;15.07;;;11.48;;
49910;SDS011;35803;53.096;5.844;2023-07-09T08:01:02;14.35;;;10.73;;
49910;SDS011;35803;53.096;5.844;2023-07-09T08:03:49;20.65;;;11.43;;
49910;SDS011;35803;53.096;5.844;2023-07-09T08:06:34;16.35;;;9.80;;
49910;SDS011;35803;53.096;5.844;2023-07-09T08:09:21;12.45;;;9.45;;
49910;SDS011;35803;53.096;5.844;2023-07-09T08:12:10;12.40;;;8.27;;
49910;SDS011;35803;53.096;5.844;2023-07-09T08:14:57;12.68;;;7.95;;
49910;SDS011;35803;53.096;5.844;2023-07-09T08:17:43;11.55;;;7.50;;
49910;SDS011;35803;53.096;5.844;2023-07-09T08:20:29;9.82;;;7.68;;
49910;SDS011;35803;53.096;5.844;2023-07-09T08:23:15;12.88;;;7.78;;
49910;SDS011;35803;53.096;5.844;2023-07-09T08:26:01;12.40;;;6.90;;
49910;SDS011;35803;53.096;5.844;2023-07-09T08:28:48;10.20;;;6.82;;
49910;SDS011;35803;53.096;5.844;2023-07-09T08:31:34;9.55;;;7.38;;
49910;SDS011;35803;53.096;5.844;2023-07-09T08:34:19;11.20;;;7.72;;
49910;SDS011;35803;53.096;5.844;2023-07-09T08:37:06;11.48;;;8.10;;
49910;SDS011;35803;53.096;5.844;2023-07-09T08:39:54;9.50;;;6.72;;
49910;SDS011;35803;53.096;5.844;2023-07-09T08:42:44;9.80;;;5.97;;
49910;SDS011;35803;53.096;5.844;2023-07-09T08:48:33;10.38;;;6.30;;
49910;SDS011;35803;53.096;5.844;2023-07-09T08:51:26;11.05;;;8.15;;
49910;SDS011;35803;53.096;5.844;2023-07-09T08:54:28;10.13;;;7.82;;
49910;SDS011;35803;53.096;5.844;2023-07-09T08:57:26;10.32;;;7.35;;
49910;SDS011;35803;53.096;5.844;2023-07-09T09:00:16;9.68;;;7.47;;
49910;SDS011;35803;53.096;5.844;2023-07-09T09:03:10;10.77;;;7.95;;
49910;SDS011;35803;53.096;5.844;2023-07-09T09:05:59;9.68;;;7.43;;
49910;SDS011;35803;53.096;5.844;2023-07-09T09:11:56;10.60;;;7.63;;
49910;SDS011;35803;53.096;5.844;2023-07-09T09:15:13;9.52;;;7.22;;
49910;SDS011;35803;53.096;5.844;2023-07-09T09:18:10;11.30;;;7.10;;
49910;SDS011;35803;53.096;5.844;2023-07-09T09:21:21;7.22;;;5.15;;
49910;SDS011;35803;53.096;5.844;2023-07-09T09:24:12;7.68;;;4.65;;
49910;SDS011;35803;53.096;5.844;2023-07-09T09:27:03;9.25;;;5.30;;
49910;SDS011;35803;53.096;5.844;2023-07-09T09:29:49;7.35;;;4.72;;
49910;SDS011;35803;53.096;5.844;2023-07-09T09:32:38;8.35;;;4.80;;
49910;SDS011;35803;53.096;5.844;2023-07-09T09:35:36;8.27;;;5.47;;
49910;SDS011;35803;53.096;5.844;2023-07-09T09:38:23;7.50;;;4.97;;
49910;SDS011;35803;53.096;5.844;2023-07-09T09:41:12;7.15;;;4.68;;
49910;SDS011;35803;53.096;5.844;2023-07-09T09:44:00;7.43;;;4.75;;
49910;SDS011;35803;53.096;5.844;2023-07-09T09:46:47;9.38;;;4.93;;
49910;SDS011;35803;53.096;5.844;2023-07-09T09:49:41;6.82;;;5.00;;
49910;SDS011;35803;53.096;5.844;2023-07-09T09:52:29;6.20;;;4.18;;
49910;SDS011;35803;53.096;5.844;2023-07-09T09:55:18;6.03;;;3.80;;
49910;SDS011;35803;53.096;5.844;2023-07-09T09:58:12;5.70;;;4.32;;
49910;SDS011;35803;53.096;5.844;2023-07-09T10:01:00;5.65;;;3.97;;
49910;SDS011;35803;53.096;5.844;2023-07-09T10:03:50;6.80;;;4.55;;
49910;SDS011;35803;53.096;5.844;2023-07-09T10:09:49;7.63;;;4.95;;
49910;SDS011;35803;53.096;5.844;2023-07-09T10:12:40;8.35;;;5.10;;
49910;SDS011;35803;53.096;5.844;2023-07-09T10:21:57;7.10;;;4.63;;
49910;SDS011;35803;53.096;5.844;2023-07-09T10:24:57;5.88;;;4.30;;
49910;SDS011;35803;53.096;5.844;2023-07-09T10:28:05;5.50;;;3.80;;
49910;SDS011;35803;53.096;5.844;2023-07-09T10:34:15;4.78;;;3.72;;
49910;SDS011;35803;53.096;5.844;2023-07-09T10:37:25;5.80;;;4.25;;
49910;SDS011;35803;53.096;5.844;2023-07-09T10:40:53;6.97;;;3.80;;
49910;SDS011;35803;53.096;5.844;2023-07-09T10:46:31;6.13;;;3.90;;
49910;SDS011;35803;53.096;5.844;2023-07-09T10:49:18;5.75;;;3.88;;
49910;SDS011;35803;53.096;5.844;2023-07-09T10:52:15;6.65;;;3.97;;
49910;SDS011;35803;53.096;5.844;2023-07-09T10:58:21;6.05;;;3.45;;
49910;SDS011;35803;53.096;5.844;2023-07-09T11:01:29;5.82;;;3.50;;
49910;SDS011;35803;53.096;5.844;2023-07-09T11:04:33;4.57;;;3.15;;
49910;SDS011;35803;53.096;5.844;2023-07-09T11:07:23;4.70;;;2.97;;
49910;SDS011;35803;53.096;5.844;2023-07-09T11:13:05;6.15;;;3.42;;
49910;SDS011;35803;53.096;5.844;2023-07-09T11:15:57;4.80;;;3.47;;
49910;SDS011;35803;53.096;5.844;2023-07-09T11:18:52;5.15;;;3.30;;
49910;SDS011;35803;53.096;5.844;2023-07-09T11:22:02;6.82;;;3.58;;
49910;SDS011;35803;53.096;5.844;2023-07-09T11:24:50;5.78;;;3.70;;
49910;SDS011;35803;53.096;5.844;2023-07-09T11:27:53;6.10;;;3.80;;
49910;SDS011;35803;53.096;5.844;2023-07-09T11:30:53;4.85;;;3.42;;
49910;SDS011;35803;53.096;5.844;2023-07-09T11:33:49;5.03;;;3.50;;
49910;SDS011;35803;53.096;5.844;2023-07-09T11:36:56;4.90;;;3.45;;
49910;SDS011;35803;53.096;5.844;2023-07-09T11:39:45;4.20;;;3.20;;
49910;SDS011;35803;53.096;5.844;2023-07-09T11:42:33;5.30;;;3.72;;
49910;SDS011;35803;53.096;5.844;2023-07-09T11:45:30;6.47;;;3.30;;
49910;SDS011;35803;53.096;5.844;2023-07-09T11:48:23;5.40;;;3.67;;
49910;SDS011;35803;53.096;5.844;2023-07-09T11:51:16;5.80;;;3.53;;
49910;SDS011;35803;53.096;5.844;2023-07-09T11:54:03;5.63;;;3.97;;
49910;SDS011;35803;53.096;5.844;2023-07-09T11:56:53;5.38;;;3.42;;
49910;SDS011;35803;53.096;5.844;2023-07-09T11:59:43;6.63;;;4.25;;
49910;SDS011;35803;53.096;5.844;2023-07-09T12:02:30;5.50;;;3.78;;
49910;SDS011;35803;53.096;5.844;2023-07-09T12:05:19;5.50;;;3.83;;
49910;SDS011;35803;53.096;5.844;2023-07-09T12:08:07;5.40;;;3.78;;
49910;SDS011;35803;53.096;5.844;2023-07-09T12:10:53;5.20;;;3.78;;
49910;SDS011;35803;53.096;5.844;2023-07-09T12:13:39;5.68;;;3.75;;
49910;SDS011;35803;53.096;5.844;2023-07-09T12:16:26;7.13;;;3.80;;
49910;SDS011;35803;53.096;5.844;2023-07-09T12:19:24;6.13;;;3.80;;
49910;SDS011;35803;53.096;5.844;2023-07-09T12:22:14;5.88;;;3.63;;
49910;SDS011;35803;53.096;5.844;2023-07-09T12:25:05;7.50;;;4.20;;
49910;SDS011;35803;53.096;5.844;2023-07-09T12:28:11;10.65;;;4.20;;
49910;SDS011;35803;53.096;5.844;2023-07-09T12:30:59;7.03;;;3.53;;
49910;SDS011;35803;53.096;5.844;2023-07-09T12:33:48;5.68;;;3.78;;
49910;SDS011;35803;53.096;5.844;2023-07-09T12:36:35;4.82;;;3.95;;
49910;SDS011;35803;53.096;5.844;2023-07-09T12:39:24;6.57;;;3.97;;
49910;SDS011;35803;53.096;5.844;2023-07-09T12:42:14;4.32;;;3.38;;
49910;SDS011;35803;53.096;5.844;2023-07-09T12:45:03;5.07;;;3.55;;
49910;SDS011;35803;53.096;5.844;2023-07-09T12:47:50;6.15;;;4.25;;
49910;SDS011;35803;53.096;5.844;2023-07-09T12:50:37;4.57;;;3.22;;
49910;SDS011;35803;53.096;5.844;2023-07-09T12:53:23;4.45;;;3.35;;
49910;SDS011;35803;53.096;5.844;2023-07-09T12:56:12;5.82;;;3.72;;
49910;SDS011;35803;53.096;5.844;2023-07-09T12:58:59;5.72;;;3.75;;
49910;SDS011;35803;53.096;5.844;2023-07-09T13:02:01;4.55;;;3.80;;
49910;SDS011;35803;53.096;5.844;2023-07-09T13:05:06;5.60;;;3.83;;
49910;SDS011;35803;53.096;5.844;2023-07-09T13:08:02;5.45;;;3.80;;
49910;SDS011;35803;53.096;5.844;2023-07-09T13:10:48;5.68;;;3.78;;
49910;SDS011;35803;53.096;5.844;2023-07-09T13:13:36;5.97;;;3.60;;
49910;SDS011;35803;53.096;5.844;2023-07-09T13:16:22;6.70;;;3.83;;
49910;SDS011;35803;53.096;5.844;2023-07-09T13:19:08;5.43;;;3.72;;
49910;SDS011;35803;53.096;5.844;2023-07-09T13:21:54;4.85;;;3.42;;
49910;SDS011;35803;53.096;5.844;2023-07-09T13:24:40;4.50;;;3.45;;
49910;SDS011;35803;53.096;5.844;2023-07-09T13:27:26;4.70;;;3.25;;
49910;SDS011;35803;53.096;5.844;2023-07-09T13:30:12;6.30;;;3.30;;
49910;SDS011;35803;53.096;5.844;2023-07-09T13:32:58;6.25;;;4.07;;
49910;SDS011;35803;53.096;5.844;2023-07-09T13:35:45;5.55;;;3.70;;
49910;SDS011;35803;53.096;5.844;2023-07-09T13:38:31;6.47;;;3.65;;
49910;SDS011;35803;53.096;5.844;2023-07-09T13:41:18;6.88;;;3.58;;
49910;SDS011;35803;53.096;5.844;2023-07-09T13:44:10;6.40;;;3.72;;
49910;SDS011;35803;53.096;5.844;2023-07-09T13:47:00;5.40;;;3.58;;
49910;SDS011;35803;53.096;5.844;2023-07-09T13:49:46;5.03;;;3.58;;
49910;SDS011;35803;53.096;5.844;2023-07-09T13:52:32;6.45;;;3.70;;
49910;SDS011;35803;53.096;5.844;2023-07-09T13:55:20;5.22;;;3.22;;
49910;SDS011;35803;53.096;5.844;2023-07-09T13:58:09;5.60;;;3.40;;
49910;SDS011;35803;53.096;5.844;2023-07-09T14:00:59;4.45;;;3.33;;
49910;SDS011;35803;53.096;5.844;2023-07-09T14:03:53;4.95;;;3.30;;
49910;SDS011;35803;53.096;5.844;2023-07-09T14:06:40;5.57;;;3.78;;
49910;SDS011;35803;53.096;5.844;2023-07-09T14:09:26;6.78;;;3.88;;
49910;SDS011;35803;53.096;5.844;2023-07-09T14:12:11;5.05;;;3.20;;
49910;SDS011;35803;53.096;5.844;2023-07-09T14:14:58;6.22;;;3.03;;
49910;SDS011;35803;53.096;5.844;2023-07-09T14:17:46;6.53;;;3.30;;
49910;SDS011;35803;53.096;5.844;2023-07-09T14:20:32;4.95;;;3.00;;
49910;SDS011;35803;53.096;5.844;2023-07-09T14:23:18;5.50;;;3.45;;
49910;SDS011;35803;53.096;5.844;2023-07-09T14:26:04;5.00;;;2.80;;
49910;SDS011;35803;53.096;5.844;2023-07-09T14:28:50;4.93;;;2.78;;
49910;SDS011;35803;53.096;5.844;2023-07-09T14:31:39;5.07;;;2.58;;
49910;SDS011;35803;53.096;5.844;2023-07-09T14:34:27;6.03;;;2.72;;
49910;SDS011;35803;53.096;5.844;2023-07-09T14:37:14;5.53;;;2.90;;
49910;SDS011;35803;53.096;5.844;2023-07-09T14:40:00;4.85;;;2.55;;
49910;SDS011;35803;53.096;5.844;2023-07-09T14:42:46;6.40;;;3.45;;
49910;SDS011;35803;53.096;5.844;2023-07-09T14:45:36;11.07;;;3.80;;
49910;SDS011;35803;53.096;5.844;2023-07-09T14:48:22;10.15;;;4.72;;
49910;SDS011;35803;53.096;5.844;2023-07-09T14:51:12;10.50;;;5.80;;
49910;SDS011;35803;53.096;5.844;2023-07-09T14:54:01;13.70;;;6.05;;
49910;SDS011;35803;53.096;5.844;2023-07-09T14:56:48;10.52;;;6.13;;
49910;SDS011;35803;53.096;5.844;2023-07-09T14:59:35;10.73;;;5.85;;
49910;SDS011;35803;53.096;5.844;2023-07-09T15:02:39;15.35;;;6.38;;
49910;SDS011;35803;53.096;5.844;2023-07-09T15:05:26;15.57;;;8.35;;
49910;SDS011;35803;53.096;5.844;2023-07-09T15:08:13;19.58;;;8.57;;
49910;SDS011;35803;53.096;5.844;2023-07-09T15:11:03;21.80;;;8.05;;
49910;SDS011;35803;53.096;5.844;2023-07-09T15:13:49;17.73;;;7.90;;
49910;SDS011;35803;53.096;5.844;2023-07-09T15:16:36;13.00;;;6.90;;
49910;SDS011;35803;53.096;5.844;2023-07-09T15:19:22;10.45;;;6.07;;
49910;SDS011;35803;53.096;5.844;2023-07-09T15:22:33;13.75;;;5.00;;
49910;SDS011;35803;53.096;5.844;2023-07-09T15:25:21;10.10;;;4.95;;
49910;SDS011;35803;53.096;5.844;2023-07-09T15:28:09;16.38;;;6.90;;
49910;SDS011;35803;53.096;5.844;2023-07-09T15:30:56;12.55;;;6.30;;
49910;SDS011;35803;53.096;5.844;2023-07-09T15:33:42;14.43;;;7.13;;
49910;SDS011;35803;53.096;5.844;2023-07-09T15:36:28;10.80;;;6.07;;
49910;SDS011;35803;53.096;5.844;2023-07-09T15:39:14;13.18;;;7.15;;
49910;SDS011;35803;53.096;5.844;2023-07-09T15:42:00;18.83;;;11.48;;
49910;SDS011;35803;53.096;5.844;2023-07-09T15:44:46;16.70;;;8.30;;
49910;SDS011;35803;53.096;5.844;2023-07-09T15:47:33;13.77;;;7.30;;
49910;SDS011;35803;53.096;5.844;2023-07-09T15:53:08;14.27;;;8.05;;
49910;SDS011;35803;53.096;5.844;2023-07-09T15:56:00;19.55;;;7.32;;
49910;SDS011;35803;53.096;5.844;2023-07-09T15:58:47;10.00;;;6.43;;
49910;SDS011;35803;53.096;5.844;2023-07-09T16:01:32;13.35;;;6.18;;
49910;SDS011;35803;53.096;5.844;2023-07-09T16:04:18;19.05;;;6.35;;
49910;SDS011;35803;53.096;5.844;2023-07-09T16:07:04;13.40;;;6.47;;
49910;SDS011;35803;53.096;5.844;2023-07-09T16:09:50;11.68;;;6.38;;
49910;SDS011;35803;53.096;5.844;2023-07-09T16:12:36;14.27;;;6.00;;
49910;SDS011;35803;53.096;5.844;2023-07-09T16:15:22;11.25;;;6.30;;
49910;SDS011;35803;53.096;5.844;2023-07-09T16:18:09;10.30;;;5.80;;
49910;SDS011;35803;53.096;5.844;2023-07-09T16:20:56;12.73;;;6.13;;
49910;SDS011;35803;53.096;5.844;2023-07-09T16:23:43;11.80;;;5.70;;
49910;SDS011;35803;53.096;5.844;2023-07-09T16:26:29;16.42;;;7.05;;
49910;SDS011;35803;53.096;5.844;2023-07-09T16:29:19;14.32;;;6.15;;
49910;SDS011;35803;53.096;5.844;2023-07-09T16:32:08;13.73;;;5.70;;
49910;SDS011;35803;53.096;5.844;2023-07-09T16:34:57;8.30;;;5.50;;
49910;SDS011;35803;53.096;5.844;2023-07-09T16:37:43;13.00;;;6.00;;
49910;SDS011;35803;53.096;5.844;2023-07-09T16:40:33;17.52;;;9.63;;
49910;SDS011;35803;53.096;5.844;2023-07-09T16:43:19;27.40;;;14.02;;
49910;SDS011;35803;53.096;5.844;2023-07-09T16:46:20;23.58;;;13.57;;
49910;SDS011;35803;53.096;5.844;2023-07-09T16:49:51;25.05;;;11.55;;
49910;SDS011;35803;53.096;5.844;2023-07-09T16:52:24;21.15;;;11.80;;
49910;SDS011;35803;53.096;5.844;2023-07-09T16:55:18;18.77;;;11.82;;
49910;SDS011;35803;53.096;5.844;2023-07-09T16:58:29;21.73;;;12.63;;
49910;SDS011;35803;53.096;5.844;2023-07-09T17:01:19;14.10;;;9.43;;
49910;SDS011;35803;53.096;5.844;2023-07-09T17:04:15;12.35;;;6.95;;
49910;SDS011;35803;53.096;5.844;2023-07-09T17:07:04;12.65;;;7.18;;
49910;SDS011;35803;53.096;5.844;2023-07-09T17:09:56;13.00;;;7.22;;
49910;SDS011;35803;53.096;5.844;2023-07-09T17:12:47;17.98;;;10.90;;
49910;SDS011;35803;53.096;5.844;2023-07-09T17:15:46;21.25;;;13.52;;
49910;SDS011;35803;53.096;5.844;2023-07-09T17:18:34;20.77;;;13.73;;
49910;SDS011;35803;53.096;5.844;2023-07-09T17:21:20;23.73;;;13.38;;
49910;SDS011;35803;53.096;5.844;2023-07-09T17:24:25;24.35;;;13.82;;